Time;durP1;ratioP1;P1;durP2;ratioP2;P2;SDS_P1;SDS_P2;PMS_P1;PMS_P2;Temp;Humidity;BMP_temperature;BMP_pressure;BME280_temperature;BME280_humidity;BME280_pressure;Samples;Min_cycle;Max_cycle;Signal;HPM_P1;HPM_P2
2022/06/08 00:02:10;;;;;;;26.88;7.40;;;;;;;11.27;57.79;99787.06;6164543;23;20079;-81
2022/06/08 00:04:36;;;;;;;23.02;7.72;;;;;;;11.17;57.52;99758.53;6186389;23;20027;-80
2022/06/08 00:07:03;;;;;;;17.48;7.32;;;;;;;11.32;57.64;99779.22;6133336;23;20407;-82
2022/06/08 00:09:29;;;;;;;26.75;7.03;;;;;;;11.31;58.10;99769.66;6184415;23;20017;-81
2022/06/08 00:11:56;;;;;;;19.55;6.78;;;;;;;11.34;57.65;99767.03;6185195;23;20028;-81
2022/06/08 00:14:22;;;;;;;19.63;7.57;;;;;;;11.37;57.93;99771.31;6183270;23;20017;-79
2022/06/08 00:16:49;;;;;;;19.17;7.80;;;;;;;11.47;57.73;99783.38;6185066;23;20470;-80
2022/06/08 00:19:15;;;;;;;17.63;6.80;;;;;;;11.43;58.08;99766.88;6159128;23;20017;-80
2022/06/08 00:21:41;;;;;;;16.17;6.63;;;;;;;11.59;58.31;99777.09;6158896;23;20024;-81
2022/06/08 00:24:07;;;;;;;19.23;6.32;;;;;;;11.58;58.46;99770.19;6110842;23;20016;-81
2022/06/08 00:26:36;;;;;;;18.02;6.80;;;;;;;11.58;58.02;99771.03;6185602;23;20035;-81
2022/06/08 00:29:04;;;;;;;23.88;6.45;;;;;;;11.56;58.37;99756.31;6158231;23;20039;-82
2022/06/08 00:31:31;;;;;;;24.23;6.32;;;;;;;11.73;58.38;99782.13;6158621;23;20013;-81
2022/06/08 00:33:58;;;;;;;20.95;7.00;;;;;;;11.67;58.15;99758.78;6185221;23;20075;-80
2022/06/08 00:36:24;;;;;;;16.83;6.40;;;;;;;11.65;58.56;99756.19;6184950;23;20099;-81
2022/06/08 00:38:51;;;;;;;15.07;6.38;;;;;;;11.84;58.61;99777.66;6158903;23;20017;-81
2022/06/08 00:41:23;;;;;;;17.60;7.10;;;;;;;11.88;58.83;99774.13;6160170;23;20017;-80
2022/06/08 00:43:49;;;;;;;16.10;6.82;;;;;;;11.87;58.60;99761.09;6186674;23;20020;-81
2022/06/08 00:46:15;;;;;;;15.30;7.15;;;;;;;12.01;58.64;99768.72;6142171;23;20017;-79
2022/06/08 00:48:47;;;;;;;21.42;7.18;;;;;;;12.07;58.58;99773.88;6163801;23;20017;-80
2022/06/08 00:51:14;;;;;;;17.20;6.78;;;;;;;12.12;58.60;99773.78;6164520;23;20436;-80
2022/06/08 00:53:45;;;;;;;23.50;7.30;;;;;;;12.07;58.62;99752.13;6189455;23;20022;-80
2022/06/08 00:56:17;;;;;;;14.43;5.83;;;;;;;12.10;58.47;99752.94;6190316;23;20072;-81
2022/06/08 00:58:45;;;;;;;20.33;6.95;;;;;;;12.19;58.46;99767.59;6174353;23;20101;-79
2022/06/08 01:01:12;;;;;;;19.70;7.25;;;;;;;12.15;58.70;99742.44;6153907;23;20024;-81
2022/06/08 01:03:39;;;;;;;18.38;6.65;;;;;;;12.19;58.73;99744.97;6150812;23;20017;-82
2022/06/08 01:06:13;;;;;;;16.38;6.75;;;;;;;12.33;58.38;99767.38;6189483;23;20031;-81
2022/06/08 01:08:42;;;;;;;24.05;6.75;;;;;;;12.07;58.73;99718.22;6163329;23;20046;-81
2022/06/08 01:11:15;;;;;;;20.75;6.05;;;;;;;12.31;58.91;99766.53;6164070;23;20012;-80
2022/06/08 01:13:43;;;;;;;25.25;7.05;;;;;;;12.18;58.87;99745.84;6197229;23;20012;-78
2022/06/08 01:16:14;;;;;;;26.63;7.10;;;;;;;12.34;58.91;99772.56;6151378;23;20031;-81
2022/06/08 01:18:41;;;;;;;27.73;6.90;;;;;;;12.32;59.20;99757.81;6161664;23;20048;-79
2022/06/08 01:21:21;;;;;;;23.67;7.03;;;;;;;12.39;59.22;99774.22;6178093;23;20017;-78
2022/06/08 01:24:01;;;;;;;21.95;6.07;;;;;;;12.38;59.39;99760.31;6160145;23;20024;-80
2022/06/08 01:26:46;;;;;;;27.85;6.13;;;;;;;12.43;59.63;99770.69;6158854;23;20545;-81
2022/06/08 01:29:25;;;;;;;19.13;8.60;;;;;;;12.35;59.60;99760.38;6184466;23;20116;-81
2022/06/08 01:32:03;;;;;;;19.45;6.38;;;;;;;12.45;59.79;99774.13;6158817;23;20517;-79
2022/06/08 01:34:47;;;;;;;11.57;5.60;;;;;;;12.42;59.74;99763.75;6183842;23;20021;-79
2022/06/08 01:37:40;;;;;;;17.48;5.43;;;;;;;12.50;60.18;99778.38;6159382;23;20028;-80
2022/06/08 01:40:28;;;;;;;22.20;5.90;;;;;;;12.54;59.98;99775.72;6180540;23;20025;-80
2022/06/08 01:43:55;;;;;;;11.68;5.18;;;;;;;12.54;60.06;99773.97;6169046;23;20019;-82
2022/06/08 01:46:27;;;;;;;23.38;5.57;;;;;;;12.55;60.11;99767.84;6185161;23;20360;-79
2022/06/08 01:49:15;;;;;;;14.38;5.90;;;;;;;12.63;60.23;99773.81;6185524;23;20020;-79
2022/06/08 01:51:41;;;;;;;13.57;6.15;;;;;;;12.73;60.12;99778.84;6159510;23;20095;-78
2022/06/08 01:54:23;;;;;;;15.35;6.53;;;;;;;12.76;60.24;99777.06;6163072;23;20028;-81
2022/06/08 01:57:05;;;;;;;12.35;5.35;;;;;;;12.78;60.48;99774.41;6154789;23;20021;-82
2022/06/08 01:59:46;;;;;;;15.70;5.63;;;;;;;12.87;59.82;99778.59;6158669;23;20616;-81
2022/06/08 02:02:12;;;;;;;16.73;6.00;;;;;;;12.91;60.09;99788.09;6161385;23;20087;-81
2022/06/08 02:04:57;;;;;;;16.70;5.70;;;;;;;12.95;60.14;99788.00;6187683;23;20020;-81
2022/06/08 02:08:05;;;;;;;14.57;5.35;;;;;;;12.97;59.74;99788.00;6184345;23;20021;-81
2022/06/08 02:10:39;;;;;;;16.95;5.65;;;;;;;12.83;59.81;99769.97;6158579;23;20016;-82
2022/06/08 02:13:24;;;;;;;12.90;5.88;;;;;;;12.99;59.76;99785.34;6134010;23;20055;-83
2022/06/08 02:16:07;;;;;;;13.20;4.82;;;;;;;13.00;59.74;99777.50;6144557;23;20020;-81
2022/06/08 02:18:44;;;;;;;17.05;5.75;;;;;;;13.01;59.40;99768.78;6165505;23;20031;-80
2022/06/08 02:21:16;;;;;;;16.70;5.00;;;;;;;13.22;59.07;99790.97;6184461;23;20065;-81
2022/06/08 02:24:09;;;;;;;17.17;5.60;;;;;;;13.22;58.59;99780.53;6184236;23;20097;-81
2022/06/08 02:26:41;;;;;;;9.93;4.77;;;;;;;13.37;58.77;99792.44;6159283;23;20021;-80
2022/06/08 02:29:14;;;;;;;10.77;5.32;;;;;;;13.33;58.27;99769.84;6183384;23;20073;-79
2022/06/08 02:32:04;;;;;;;16.30;5.03;;;;;;;13.50;57.57;99787.84;6134557;23;20064;-82
2022/06/08 02:34:41;;;;;;;13.27;4.90;;;;;;;13.64;57.40;99786.66;6125274;23;20040;-80
2022/06/08 02:37:19;;;;;;;8.98;4.43;;;;;;;13.70;57.10;99778.69;6159636;23;20039;-80
2022/06/08 02:40:01;;;;;;;13.05;4.68;;;;;;;13.72;56.61;99776.91;6187978;23;20521;-79
2022/06/08 02:42:44;;;;;;;14.40;5.20;;;;;;;13.84;56.44;99773.16;6185838;23;20025;-80
2022/06/08 02:45:15;;;;;;;23.00;5.60;;;;;;;14.07;56.08;99783.09;6137888;23;20017;-80
2022/06/08 02:47:47;;;;;;;12.67;5.37;;;;;;;13.93;55.88;99733.69;6194347;23;20041;-80
2022/06/08 02:50:18;;;;;;;15.50;4.80;;;;;;;14.40;55.62;99771.84;6151588;23;20232;-79
2022/06/08 02:52:47;;;;;;;19.23;5.53;;;;;;;14.51;55.07;99777.66;6182650;23;20039;-80
2022/06/08 02:55:21;;;;;;;14.77;5.53;;;;;;;14.78;54.63;99784.88;6210836;23;20256;-81
2022/06/08 02:57:56;;;;;;;12.98;5.32;;;;;;;14.97;54.03;99793.13;6169762;23;20017;-81
2022/06/08 03:00:34;;;;;;;17.52;5.25;;;;;;;15.11;53.76;99792.75;6163937;23;20020;-79
2022/06/08 03:03:17;;;;;;;10.68;4.38;;;;;;;14.97;53.67;99732.84;6137674;23;20021;-79
2022/06/08 03:05:54;;;;;;;12.50;4.82;;;;;;;15.39;53.30;99766.59;6184255;23;20451;-80
2022/06/08 03:08:30;;;;;;;14.95;5.20;;;;;;;15.58;52.94;99780.00;6134991;23;20021;-81
2022/06/08 03:11:00;;;;;;;14.75;6.38;;;;;;;15.76;52.66;99775.97;6183863;23;20013;-83
2022/06/08 03:13:28;;;;;;;16.13;5.45;;;;;;;15.97;52.35;99786.72;6165565;23;20025;-81
2022/06/08 03:16:00;;;;;;;13.05;4.88;;;;;;;15.83;51.57;99779.25;6161739;23;20044;-81
2022/06/08 03:18:28;;;;;;;9.38;4.63;;;;;;;15.78;52.34;99784.66;6188605;23;20078;-79
2022/06/08 03:20:59;;;;;;;15.38;5.15;;;;;;;16.07;52.47;99795.16;6169809;23;20017;-79
2022/06/08 03:23:29;;;;;;;19.58;5.15;;;;;;;16.25;52.09;99783.22;6197028;23;20144;-80
2022/06/08 03:25:56;;;;;;;17.25;5.00;;;;;;;16.35;51.92;99782.00;6198860;23;20025;-79
2022/06/08 03:28:23;;;;;;;10.00;4.80;;;;;;;16.63;51.48;99793.38;6210094;23;19997;-81
2022/06/08 03:30:52;;;;;;;12.43;4.88;;;;;;;16.80;51.61;99798.03;6208575;23;20005;-81
2022/06/08 03:33:19;;;;;;;13.55;5.28;;;;;;;16.93;51.13;99795.81;6179570;23;20062;-80
2022/06/08 03:35:46;;;;;;;11.65;5.20;;;;;;;17.02;51.02;99796.38;6179126;23;20020;-79
2022/06/08 03:38:13;;;;;;;12.38;4.97;;;;;;;16.96;50.93;99770.34;6157597;23;20005;-81
2022/06/08 03:40:43;;;;;;;14.60;5.20;;;;;;;17.20;50.77;99777.38;6169573;23;20032;-80
2022/06/08 03:43:10;;;;;;;13.15;5.30;;;;;;;17.44;50.51;99786.13;6165613;23;20525;-80
2022/06/08 03:45:48;;;;;;;14.50;6.00;;;;;;;17.65;50.00;99796.78;6165846;23;20017;-79
2022/06/08 03:48:15;;;;;;;9.13;5.20;;;;;;;17.66;49.71;99786.19;6168213;23;20064;-79
2022/06/08 03:50:42;;;;;;;20.90;5.57;;;;;;;17.77;49.61;99791.88;6194512;23;20009;-80
2022/06/08 03:53:19;;;;;;;14.65;5.10;;;;;;;17.90;49.33;99794.03;6178566;23;20008;-80
2022/06/08 03:55:47;;;;;;;14.13;5.32;;;;;;;18.05;49.15;99789.97;6178518;23;20054;-79
2022/06/08 03:58:14;;;;;;;16.63;4.63;;;;;;;18.19;48.57;99784.16;6170244;23;20411;-79
2022/06/08 04:00:43;;;;;;;10.35;4.68;;;;;;;18.30;47.92;99776.66;6164405;23;20082;-79
2022/06/08 04:03:15;;;;;;;12.05;4.65;;;;;;;18.42;47.74;99795.53;6164852;23;20128;-80
2022/06/08 04:05:40;;;;;;;11.52;5.13;;;;;;;18.60;47.67;99805.28;6166854;23;20036;-81
2022/06/08 04:08:13;;;;;;;;;;;;;;;18.81;47.37;99803.50;6192347;23;20039;-79
2022/06/08 04:10:47;;;;;;;9.98;5.00;;;;;;;19.05;46.99;99810.47;6170500;23;19916;-80
2022/06/08 04:13:13;;;;;;;12.02;5.05;;;;;;;19.00;46.73;99763.19;6168194;23;20051;-82
2022/06/08 04:15:43;;;;;;;8.27;4.97;;;;;;;19.11;46.65;99775.88;6143191;23;20013;-81
2022/06/08 04:18:24;;;;;;;13.15;5.93;;;;;;;19.52;46.37;99802.19;6192207;23;20123;-83
2022/06/08 04:21:00;;;;;;;7.90;4.85;;;;;;;19.66;46.21;99784.84;6171110;23;20013;-83
2022/06/08 04:23:36;;;;;;;13.90;4.95;;;;;;;19.80;45.77;99776.28;6192443;23;20021;-83
2022/06/08 04:26:03;;;;;;;14.00;5.15;;;;;;;20.03;44.92;99775.19;6141460;23;20028;-83
2022/06/08 04:28:34;;;;;;;14.55;5.63;;;;;;;20.31;44.61;99798.47;6159806;23;20465;-84
2022/06/08 04:31:06;;;;;;;16.00;5.47;;;;;;;20.20;44.08;99761.16;6157978;23;20028;-86
2022/06/08 04:33:41;;;;;;;17.15;5.55;;;;;;;20.45;43.57;99789.84;6142820;23;20463;-82
2022/06/08 04:36:08;;;;;;;12.73;6.00;;;;;;;20.43;43.49;99760.00;6188308;23;20024;-82
2022/06/08 04:38:36;;;;;;;12.52;6.32;;;;;;;20.76;43.84;99793.63;6188511;23;20020;-83
2022/06/08 04:41:05;;;;;;;15.50;7.05;;;;;;;20.35;43.47;99714.63;6146845;23;20013;-83
2022/06/08 04:43:33;;;;;;;17.73;6.75;;;;;;;20.79;43.24;99789.09;6128706;23;20044;-83
2022/06/08 04:46:07;;;;;;;14.80;6.90;;;;;;;20.75;43.29;99768.09;6176719;23;20159;-83
2022/06/08 04:48:36;;;;;;;13.82;5.72;;;;;;;20.65;43.23;99743.03;6203393;23;20083;-83
2022/06/08 04:51:04;;;;;;;12.02;5.97;;;;;;;20.86;42.74;99756.97;6170584;23;20020;-80
2022/06/08 04:53:35;;;;;;;19.08;6.25;;;;;;;21.26;42.43;99784.88;6168549;23;20021;-81
2022/06/08 04:56:01;;;;;;;14.25;6.05;;;;;;;21.40;42.19;99773.56;6164912;23;20020;-81
2022/06/08 04:58:27;;;;;;;10.68;5.75;;;;;;;21.31;41.38;99736.06;6167577;23;20071;-82
2022/06/08 05:00:59;;;;;;;13.43;4.55;;;;;;;21.77;40.73;99774.19;6188561;23;20068;-80
2022/06/08 05:03:25;;;;;;;11.00;4.65;;;;;;;21.69;40.28;99744.66;6164272;23;20517;-81
2022/06/08 05:05:52;;;;;;;9.90;4.20;;;;;;;21.91;39.34;99753.09;6162333;23;20017;-80
2022/06/08 05:08:26;;;;;;;12.40;3.97;;;;;;;22.07;38.58;99755.69;6164873;23;20055;-80
2022/06/08 05:10:57;;;;;;;8.90;4.20;;;;;;;22.27;37.89;99778.41;6163419;23;20472;-81
2022/06/08 05:13:26;;;;;;;11.45;3.83;;;;;;;22.30;37.38;99761.47;6185060;23;20023;-81
2022/06/08 05:16:05;;;;;;;10.63;3.55;;;;;;;22.25;36.91;99722.00;6139710;23;20454;-81
2022/06/08 05:18:33;;;;;;;8.45;3.90;;;;;;;22.64;36.40;99782.50;6138031;23;20149;-81
2022/06/08 05:21:05;;;;;;;6.97;4.03;;;;;;;22.47;36.25;99731.34;6160849;23;20028;-82
2022/06/08 05:23:36;;;;;;;7.10;3.60;;;;;;;22.62;35.76;99742.84;6112473;23;20021;-80
2022/06/08 05:26:23;;;;;;;10.95;4.07;;;;;;;22.89;35.02;99765.13;6114922;23;20020;-82
2022/06/08 05:28:51;;;;;;;9.95;3.63;;;;;;;22.86;34.92;99753.75;6186075;23;20078;-81
2022/06/08 05:31:17;;;;;;;12.82;3.50;;;;;;;22.95;34.63;99738.22;6138669;23;20017;-80
2022/06/08 05:33:47;;;;;;;11.57;3.75;;;;;;;23.00;34.54;99749.41;6165846;23;20379;-79
2022/06/08 05:36:17;;;;;;;6.10;3.10;;;;;;;23.31;34.13;99788.19;6142739;23;20488;-81
2022/06/08 05:38:44;;;;;;;6.80;3.33;;;;;;;23.35;34.04;99793.31;6192382;23;20025;-82
2022/06/08 05:41:11;;;;;;;8.75;3.33;;;;;;;23.29;33.85;99765.34;6161269;23;20408;-83
2022/06/08 05:43:39;;;;;;;6.75;3.22;;;;;;;23.38;33.77;99756.81;6160193;23;20096;-80
2022/06/08 05:46:06;;;;;;;8.70;3.28;;;;;;;23.85;33.61;99788.41;6183636;23;20028;-81
2022/06/08 05:48:36;;;;;;;7.47;2.80;;;;;;;24.46;33.11;99794.16;6159426;23;20028;-79
2022/06/08 05:51:05;;;;;;;4.03;2.40;;;;;;;25.73;32.17;99770.41;6136482;23;20021;-82
2022/06/08 05:53:33;;;;;;;6.90;2.58;;;;;;;28.07;29.97;99773.78;6137179;23;20051;-81
2022/06/08 05:55:59;;;;;;;6.85;2.60;;;;;;;30.03;27.73;99761.41;6160738;23;20016;-79
2022/06/08 05:58:28;;;;;;;6.45;3.00;;;;;;;32.19;25.10;99769.63;6163866;23;20088;-78
2022/06/08 06:00:56;;;;;;;3.38;2.50;;;;;;;33.62;23.55;99754.03;6135439;23;20028;-80
2022/06/08 06:03:22;;;;;;;4.85;2.45;;;;;;;35.12;22.19;99765.63;6174396;23;20057;-79
2022/06/08 06:05:50;;;;;;;3.25;2.20;;;;;;;35.98;21.34;99767.56;6157286;23;20021;-78
2022/06/08 06:08:18;;;;;;;7.65;4.25;;;;;;;37.12;19.99;99771.25;6115402;23;20020;-77
2022/06/08 06:10:51;;;;;;;3.85;2.53;;;;;;;38.30;18.43;99773.84;6156763;23;20023;-80
2022/06/08 06:13:34;;;;;;;9.93;2.33;;;;;;;39.10;17.55;99775.47;6131815;23;20055;-82
2022/06/08 06:16:01;;;;;;;4.43;3.13;;;;;;;39.67;17.04;99778.00;6131220;23;20044;-80
2022/06/08 06:18:31;;;;;;;6.35;4.18;;;;;;;40.19;15.81;99760.09;6156136;23;20021;-80
2022/06/08 06:21:16;;;;;;;3.80;1.80;;;;;;;41.27;14.76;99770.84;6129227;23;20021;-78
2022/06/08 06:23:58;;;;;;;3.55;2.30;;;;;;;41.99;13.93;99772.56;6132397;23;20017;-78
2022/06/08 06:26:53;;;;;;;5.15;3.45;;;;;;;42.41;13.92;99772.88;6135578;23;20029;-80
2022/06/08 06:29:20;;;;;;;5.30;3.03;;;;;;;43.20;13.07;99765.94;6155587;23;20017;-81
2022/06/08 06:32:27;;;;;;;3.47;2.53;;;;;;;43.46;12.12;99762.03;6153971;23;20045;-80
2022/06/08 06:34:58;;;;;;;5.65;2.38;;;;;;;43.78;11.99;99767.31;6182212;23;20032;-81
2022/06/08 06:37:29;;;;;;;6.82;3.40;;;;;;;44.73;11.54;99772.06;6108672;23;20013;-78
2022/06/08 06:39:57;;;;;;;2.35;1.92;;;;;;;45.18;11.08;99778.75;6132470;23;20021;-79
2022/06/08 06:42:53;;;;;;;4.95;3.63;;;;;;;45.48;10.53;99772.25;6159515;23;20017;-79
2022/06/08 06:45:57;;;;;;;4.03;2.00;;;;;;;45.92;9.93;99744.16;6125443;23;20024;-79
2022/06/08 06:48:46;;;;;;;2.47;2.28;;;;;;;46.56;9.69;99769.66;6134259;23;20017;-77
2022/06/08 06:51:19;;;;;;;6.20;1.90;;;;;;;47.11;9.42;99781.69;6180900;23;20032;-79
2022/06/08 06:53:48;;;;;;;4.55;2.20;;;;;;;47.20;8.75;99757.31;6137631;23;20027;-80
2022/06/08 06:56:26;;;;;;;5.05;2.10;;;;;;;47.46;8.64;99765.84;6134903;23;20021;-80
2022/06/08 06:59:15;;;;;;;8.70;4.38;;;;;;;47.53;8.59;99771.97;6159201;23;20443;-79
2022/06/08 07:01:41;;;;;;;3.97;2.17;;;;;;;47.29;8.28;99733.75;6130528;23;20013;-80
2022/06/08 07:04:08;;;;;;;5.05;3.83;;;;;;;47.88;8.42;99750.56;6130757;23;20323;-80
2022/06/08 07:06:36;;;;;;;2.90;1.83;;;;;;;48.10;8.26;99747.69;6136471;23;20024;-82
2022/06/08 07:09:04;;;;;;;3.10;1.95;;;;;;;47.65;7.70;99734.09;6158860;23;20017;-80
2022/06/08 07:11:41;;;;;;;5.03;1.50;;;;;;;46.61;8.15;99747.75;6133959;23;20020;-82
2022/06/08 07:14:23;;;;;;;6.70;1.60;;;;;;;46.47;8.51;99715.09;6162772;23;20285;-85
2022/06/08 07:17:04;;;;;;;4.68;2.03;;;;;;;48.22;7.81;99777.84;6132167;23;20493;-81
2022/06/08 07:19:35;;;;;;;2.47;2.28;;;;;;;48.43;7.44;99784.34;6132357;23;20072;-81
2022/06/08 07:22:06;;;;;;;4.70;1.38;;;;;;;49.04;7.09;99758.16;6133728;23;20059;-80
2022/06/08 07:24:38;;;;;;;3.92;1.70;;;;;;;49.80;6.81;99772.47;6156753;23;20397;-81
2022/06/08 07:27:07;;;;;;;3.40;1.83;;;;;;;50.29;6.67;99779.34;6159843;23;20023;-81
2022/06/08 07:29:34;;;;;;;5.93;1.98;;;;;;;50.13;6.81;99744.50;6158050;23;20017;-83
2022/06/08 07:32:06;;;;;;;2.95;2.65;;;;;;;50.17;6.87;99759.47;6138179;23;20092;-80
2022/06/08 07:34:32;;;;;;;3.80;1.85;;;;;;;50.78;5.88;99777.03;6186857;23;20017;-79
2022/06/08 07:37:02;;;;;;;3.47;1.80;;;;;;;51.04;6.03;99760.31;6166687;23;20017;-80
2022/06/08 07:39:31;;;;;;;3.30;1.80;;;;;;;50.89;6.36;99734.34;6205439;23;20013;-81
2022/06/08 07:41:57;;;;;;;6.03;4.32;;;;;;;51.32;6.29;99774.56;6202312;23;20024;-81
2022/06/08 07:44:23;;;;;;;15.20;8.80;;;;;;;51.75;5.79;99777.63;6197264;23;20020;-82
2022/06/08 07:46:50;;;;;;;7.72;5.65;;;;;;;51.66;5.59;99721.16;6157894;23;20036;-82
2022/06/08 07:49:45;;;;;;;6.88;3.08;;;;;;;52.02;5.22;99765.19;6183229;23;20021;-82
2022/06/08 07:52:43;;;;;;;4.65;2.60;;;;;;;51.89;6.00;99747.25;6106956;23;20025;-81
2022/06/08 07:56:01;;;;;;;3.08;1.92;;;;;;;51.19;5.50;99715.91;6154222;23;20059;-81
2022/06/08 07:58:48;;;;;;;5.53;3.60;;;;;;;51.45;5.48;99775.88;6157084;23;20013;-80
2022/06/08 08:01:17;;;;;;;3.92;2.55;;;;;;;51.41;5.95;99752.66;6133831;23;20017;-81
2022/06/08 08:03:43;;;;;;;4.15;2.92;;;;;;;51.29;5.80;99739.16;6182212;23;20040;-82
2022/06/08 08:06:37;;;;;;;6.93;2.15;;;;;;;51.99;5.65;99763.00;6180850;23;20023;-83
2022/06/08 08:09:03;;;;;;;1.95;1.70;;;;;;;52.35;5.25;99726.63;6158603;23;20334;-81
2022/06/08 08:11:52;;;;;;;5.57;2.70;;;;;;;52.75;5.00;99753.34;6159576;23;20167;-81
2022/06/08 08:15:05;;;;;;;2.88;2.05;;;;;;;53.01;4.52;99767.72;6140085;23;20037;-80
2022/06/08 08:17:32;;;;;;;2.13;1.80;;;;;;;52.47;4.97;99740.06;6163494;23;20103;-80
2022/06/08 08:20:17;;;;;;;3.60;2.72;;;;;;;51.41;5.53;99750.69;6190835;23;20486;-81
2022/06/08 08:22:47;;;;;;;2.85;1.70;;;;;;;50.95;5.32;99701.97;6140185;23;20087;-80
2022/06/08 08:25:20;;;;;;;7.60;1.80;;;;;;;51.93;4.45;99744.78;6164742;23;20017;-82
2022/06/08 08:27:58;;;;;;;7.00;2.05;;;;;;;52.32;4.68;99768.81;6167592;23;20105;-82
2022/06/08 08:30:40;;;;;;;2.80;2.20;;;;;;;52.10;4.73;99703.56;6165113;23;20039;-80
2022/06/08 08:33:15;;;;;;;4.75;2.25;;;;;;;52.38;4.31;99739.91;6160117;23;20078;-81
2022/06/08 08:35:45;;;;;;;2.38;2.10;;;;;;;52.27;4.62;99743.91;6159831;23;20080;-85
2022/06/08 08:38:31;;;;;;;;;;;;;;;52.47;4.58;99756.72;6170178;23;20084;-84
2022/06/08 08:41:02;;;;;;;4.70;1.90;;;;;;;51.97;4.46;99682.09;6198041;23;19912;-82
2022/06/08 08:43:41;;;;;;;7.05;2.75;;;;;;;52.60;4.47;99752.44;6196634;23;20021;-84
2022/06/08 08:46:28;;;;;;;3.33;1.92;;;;;;;52.64;4.62;99747.91;6175497;23;20022;-84
2022/06/08 08:49:31;;;;;;;5.50;2.10;;;;;;;52.65;4.17;99752.34;6144492;23;20028;-84
2022/06/08 08:52:41;;;;;;;5.45;1.75;;;;;;;52.30;4.38;99739.72;6158406;23;20024;-81
2022/06/08 08:55:46;;;;;;;2.50;1.65;;;;;;;52.39;4.06;99749.88;6156168;23;20624;-80
2022/06/08 08:58:21;;;;;;;2.75;2.00;;;;;;;52.15;4.52;99705.44;6191224;23;20012;-81
2022/06/08 09:00:55;;;;;;;3.03;2.03;;;;;;;52.57;4.57;99723.28;6215780;23;20178;-79
2022/06/08 09:04:00;;;;;;;2.40;2.10;;;;;;;52.88;3.91;99744.28;6192266;23;20020;-81
2022/06/08 09:06:39;;;;;;;3.85;1.95;;;;;;;52.53;4.51;99726.94;6218322;23;20082;-79
2022/06/08 09:09:18;;;;;;;5.47;1.77;;;;;;;51.35;4.99;99700.03;6217814;23;20029;-80
2022/06/08 09:11:58;;;;;;;3.63;1.73;;;;;;;50.51;4.69;99691.63;6217313;23;20108;-81
2022/06/08 09:14:44;;;;;;;8.02;2.47;;;;;;;50.62;4.65;99724.50;6231631;23;20020;-80
2022/06/08 09:17:25;;;;;;;3.60;1.80;;;;;;;51.22;4.31;99712.59;6192299;23;20029;-80
2022/06/08 09:20:22;;;;;;;4.97;3.25;;;;;;;51.55;4.81;99659.44;6161057;23;20019;-80
2022/06/08 09:23:45;;;;;;;6.25;3.33;;;;;;;52.02;4.40;99703.38;6136718;23;20044;-80
2022/06/08 09:26:50;;;;;;;;;;;;;;;52.41;4.42;99724.59;6100647;23;20025;-82
2022/06/08 09:34:23;;;;;;;4.78;3.63;;;;;;;51.36;4.67;99665.69;6122006;23;20383;-79
2022/06/08 09:40:52;;;;;;;12.23;9.35;;;;;;;51.29;4.52;99706.72;6062702;23;20358;-80
2022/06/08 09:44:06;;;;;;;5.15;2.70;;;;;;;50.16;4.81;99652.75;6193408;23;20450;-80
2022/06/08 09:53:41;;;;;;;3.22;1.63;;;;;;;48.74;5.62;99712.81;6188186;23;20045;-82
2022/06/08 09:56:28;;;;;;;4.60;1.50;;;;;;;49.42;5.03;99709.16;6185848;23;20013;-81
2022/06/08 09:59:12;;;;;;;3.45;1.60;;;;;;;49.10;5.12;99704.66;6183076;23;20028;-81
2022/06/08 10:01:44;;;;;;;2.75;1.60;;;;;;;49.56;4.84;99700.28;6185498;23;20057;-81
2022/06/08 10:04:20;;;;;;;1.88;1.58;;;;;;;49.40;5.11;99700.28;6184625;23;20021;-81
2022/06/08 10:07:42;;;;;;;1.88;1.52;;;;;;;48.85;5.42;99681.41;6184221;23;20359;-79
2022/06/08 10:10:40;;;;;;;4.38;1.52;;;;;;;49.05;5.40;99690.81;6149924;23;20062;-80
2022/06/08 10:13:26;;;;;;;2.92;1.70;;;;;;;48.60;5.53;99664.72;6166488;23;20044;-81
2022/06/08 10:15:58;;;;;;;3.90;1.77;;;;;;;48.30;5.55;99663.44;6182547;23;20013;-81
2022/06/08 10:18:33;;;;;;;5.25;1.63;;;;;;;47.91;6.10;99684.72;6137062;23;20096;-82
2022/06/08 10:21:01;;;;;;;5.28;1.73;;;;;;;47.91;6.15;99692.13;6160807;23;20016;-80
2022/06/08 10:24:13;;;;;;;3.55;1.50;;;;;;;46.95;6.09;99694.53;6157258;23;20399;-80
2022/06/08 10:26:45;;;;;;;5.30;1.98;;;;;;;43.94;6.93;99641.69;6173497;23;20447;-82
2022/06/08 10:29:35;;;;;;;5.60;1.90;;;;;;;41.72;7.91;99688.06;6156635;23;20021;-81
2022/06/08 10:32:14;;;;;;;5.28;1.60;;;;;;;39.89;9.04;99689.69;6157132;23;20052;-80
2022/06/08 10:34:55;;;;;;;12.80;7.18;;;;;;;38.17;9.70;99656.97;6139352;23;20085;-81
2022/06/08 10:37:35;;;;;;;5.18;2.63;;;;;;;36.97;10.18;99674.53;6193280;23;20023;-79
2022/06/08 10:40:08;;;;;;;;;;;;;;;35.89;11.15;99693.69;6164550;23;20020;-80
2022/06/08 10:42:50;;;;;;;3.90;2.30;;;;;;;34.99;11.45;99683.25;6160399;23;19912;-80
2022/06/08 10:45:39;;;;;;;4.30;1.67;;;;;;;34.18;12.18;99679.72;6160921;23;20198;-81
2022/06/08 10:48:17;;;;;;;6.88;2.05;;;;;;;33.70;12.34;99693.84;6177136;23;20036;-80
2022/06/08 10:50:48;;;;;;;5.63;2.00;;;;;;;33.08;13.23;99688.78;6205363;23;20043;-81
2022/06/08 10:56:33;;;;;;;2.40;1.52;;;;;;;32.20;13.28;99693.28;6204779;23;20031;-81
2022/06/08 10:59:32;;;;;;;22.55;3.25;;;;;;;31.68;14.03;99690.31;6205770;23;20013;-80
2022/06/08 11:02:15;;;;;;;21.02;13.70;;;;;;;31.35;13.84;99689.13;6147507;23;20017;-82
2022/06/08 11:05:25;;;;;;;;;;;;;;;;;;;;;
2022/06/08 11:08:10;;;;;;;3.22;1.73;;;;;;;30.50;14.81;99685.50;6175659;23;20020;-80
2022/06/08 11:13:57;;;;;;;2.50;1.63;;;;;;;29.30;15.39;99595.53;6144409;23;20013;-80
2022/06/08 11:16:36;;;;;;;2.97;1.50;;;;;;;29.36;15.50;99670.03;6157883;23;20578;-78
2022/06/08 11:19:14;;;;;;;5.55;1.88;;;;;;;29.01;15.62;99668.66;6181229;23;20017;-79
2022/06/08 11:22:15;;;;;;;3.33;1.80;;;;;;;28.61;15.95;99685.47;6183365;23;20485;-81
2022/06/08 11:25:25;;;;;;;;;;;;;;;;;;;;;
2022/06/08 11:28:39;;;;;;;5.32;1.60;;;;;;;28.25;16.28;99692.03;6182170;23;20087;-80
2022/06/08 11:31:43;;;;;;;2.17;1.73;;;;;;;28.11;16.77;99690.53;6165745;23;20020;-78
2022/06/08 11:34:20;;;;;;;18.27;15.48;;;;;;;28.01;17.01;99686.06;6182724;23;20017;-78
2022/06/08 11:37:12;;;;;;;6.78;4.47;;;;;;;27.91;16.71;99688.66;6182687;23;20039;-83
2022/06/08 11:40:17;;;;;;;14.43;11.25;;;;;;;27.78;17.16;99688.84;6183015;23;20366;-82
2022/06/08 11:42:56;;;;;;;5.70;2.10;;;;;;;27.42;17.13;99650.78;6183165;23;20020;-81
2022/06/08 11:45:39;;;;;;;7.57;3.53;;;;;;;26.98;17.85;99595.56;6159367;23;20017;-81
2022/06/08 11:48:25;;;;;;;7.85;4.25;;;;;;;27.49;17.71;99695.59;6184700;23;20040;-82
2022/06/08 11:51:06;;;;;;;7.28;3.75;;;;;;;27.18;17.86;99659.84;6158995;23;20031;-84
2022/06/08 11:53:36;;;;;;;5.82;3.53;;;;;;;26.63;18.02;99588.53;6160677;23;20020;-83
2022/06/08 11:56:51;;;;;;;7.03;4.35;;;;;;;27.14;17.86;99685.94;6182165;23;20020;-82
2022/06/08 11:59:25;;;;;;;5.63;2.08;;;;;;;26.32;18.25;99590.97;6072703;23;20041;-82
2022/06/08 12:02:31;;;;;;;9.50;7.03;;;;;;;26.44;17.88;99631.81;6122574;23;20018;-82
2022/06/08 12:05:23;;;;;;;;;;;;;;;;;;;;;
2022/06/08 12:07:59;;;;;;;6.60;3.55;;;;;;;26.71;18.44;99686.63;6101339;23;20102;-82
2022/06/08 12:10:42;;;;;;;6.43;1.50;;;;;;;26.13;18.48;99624.38;6100646;23;20029;-81
2022/06/08 12:13:21;;;;;;;4.38;2.33;;;;;;;26.29;18.99;99673.84;6075347;23;20044;-80
2022/06/08 12:16:25;;;;;;;17.27;10.52;;;;;;;25.73;18.88;99610.56;6127091;23;20049;-82
2022/06/08 12:19:04;;;;;;;17.23;11.63;;;;;;;26.19;19.38;99687.03;6119593;23;20041;-79
2022/06/08 12:22:16;;;;;;;7.93;3.05;;;;;;;25.88;19.70;99632.53;6118498;23;20287;-81
2022/06/08 12:25:24;;;;;;;18.08;10.55;;;;;;;25.25;19.88;99557.19;6140476;23;20042;-81
2022/06/08 12:28:03;;;;;;;10.20;7.25;;;;;;;25.92;20.03;99679.31;6060087;23;20017;-80
2022/06/08 12:30:52;;;;;;;6.70;4.13;;;;;;;25.83;20.12;99676.34;6147256;23;20044;-83
2022/06/08 12:34:17;;;;;;;5.00;2.08;;;;;;;25.31;20.31;99614.47;6159719;23;20028;-80
2022/06/08 12:36:48;;;;;;;5.10;1.77;;;;;;;24.98;20.17;99557.41;6095757;23;20017;-80
2022/06/08 12:39:18;;;;;;;5.75;1.75;;;;;;;25.10;20.16;99579.59;6156664;23;20024;-80
2022/06/08 12:41:48;;;;;;;5.40;1.77;;;;;;;25.63;20.19;99672.50;6186420;23;20022;-81
2022/06/08 12:44:32;;;;;;;3.40;1.67;;;;;;;24.98;20.05;99570.69;6158430;23;20099;-81
2022/06/08 12:47:18;;;;;;;9.07;2.28;;;;;;;25.53;20.56;99666.16;6183798;23;20028;-81
2022/06/08 12:49:59;;;;;;;6.90;2.65;;;;;;;24.82;20.40;99571.00;6161283;23;20024;-81